createdAt,value
2019-06-26T00:02:22.966Z,99.90
2019-06-26T00:04:52.744Z,99.90
2019-06-26T00:07:22.500Z,99.90
2019-06-26T00:09:52.283Z,99.90
2019-06-26T00:12:22.119Z,99.90
2019-06-26T00:14:51.916Z,99.90
2019-06-26T00:17:21.620Z,99.90
2019-06-26T00:19:51.363Z,99.90
2019-06-26T00:22:21.072Z,99.90
2019-06-26T00:24:50.879Z,99.90
2019-06-26T00:27:20.959Z,99.90
2019-06-26T00:29:50.672Z,99.90
2019-06-26T00:32:20.455Z,99.90
2019-06-26T00:34:50.312Z,99.90
2019-06-26T00:37:20.076Z,99.90
2019-06-26T00:39:49.896Z,99.90
2019-06-26T00:42:19.786Z,99.90
2019-06-26T00:44:49.556Z,99.90
2019-06-26T00:47:19.438Z,99.90
2019-06-26T00:49:49.184Z,99.90
2019-06-26T00:52:19.010Z,99.90
2019-06-26T00:54:48.731Z,99.90
2019-06-26T00:57:18.578Z,99.90
2019-06-26T00:59:48.282Z,99.90
2019-06-26T01:02:17.981Z,99.90
2019-06-26T01:04:49.346Z,99.90
2019-06-26T01:07:19.070Z,99.90
2019-06-26T01:09:48.799Z,99.90
2019-06-26T01:12:18.642Z,99.90
2019-06-26T01:14:48.340Z,99.90
2019-06-26T01:17:18.137Z,99.90
2019-06-26T01:19:47.923Z,99.90
2019-06-26T01:22:17.635Z,99.90
2019-06-26T01:24:48.410Z,99.90
2019-06-26T01:27:18.120Z,99.90
2019-06-26T01:29:47.895Z,99.90
2019-06-26T01:32:17.682Z,99.90
2019-06-26T01:34:47.450Z,99.90
2019-06-26T01:37:17.228Z,99.90
2019-06-26T01:39:47.155Z,99.90
2019-06-26T01:42:16.898Z,99.90
2019-06-26T01:44:46.674Z,99.90
2019-06-26T01:47:16.394Z,99.90
2019-06-26T01:49:46.197Z,99.90
2019-06-26T01:52:15.891Z,99.90
2019-06-26T01:54:45.700Z,99.90
2019-06-26T01:57:15.430Z,99.90
2019-06-26T01:59:45.292Z,99.90
2019-06-26T02:02:15.238Z,99.90
2019-06-26T02:04:44.928Z,99.90
2019-06-26T02:07:14.751Z,99.90
2019-06-26T02:09:44.543Z,99.90
2019-06-26T02:12:14.394Z,99.90
2019-06-26T02:14:44.202Z,99.90
2019-06-26T02:17:14.047Z,99.90
2019-06-26T02:19:43.789Z,99.90
2019-06-26T02:22:13.685Z,99.90
2019-06-26T02:24:43.563Z,99.90
2019-06-26T02:27:13.347Z,99.90
2019-06-26T02:29:43.191Z,99.90
2019-06-26T02:32:13.204Z,99.90
2019-06-26T02:34:43.005Z,99.90
2019-06-26T02:37:18.109Z,99.90
2019-06-26T02:39:47.803Z,99.90
2019-06-26T02:42:17.509Z,99.90
2019-06-26T02:44:53.843Z,99.90
2019-06-26T02:47:20.786Z,99.90
2019-06-26T02:49:50.032Z,99.90
2019-06-26T02:52:19.834Z,99.90
2019-06-26T02:54:49.702Z,99.90
2019-06-26T02:57:20.397Z,99.90
2019-06-26T02:59:50.188Z,99.90
2019-06-26T03:02:19.976Z,99.90
2019-06-26T03:04:49.691Z,99.90
2019-06-26T03:07:19.524Z,99.90
2019-06-26T03:09:49.312Z,99.90
2019-06-26T03:12:19.096Z,99.90
2019-06-26T03:14:48.895Z,99.90
2019-06-26T03:17:18.586Z,99.90
2019-06-26T03:19:48.296Z,99.90
2019-06-26T03:22:18.007Z,99.90
2019-06-26T03:24:47.711Z,99.90
2019-06-26T03:27:17.462Z,99.90
2019-06-26T03:29:47.238Z,99.90
2019-06-26T03:32:17.050Z,99.90
2019-06-26T03:34:46.941Z,99.90
2019-06-26T03:37:16.855Z,99.90
2019-06-26T03:39:47.537Z,99.90
2019-06-26T03:42:17.620Z,99.90
2019-06-26T03:44:47.334Z,99.90
2019-06-26T03:47:18.601Z,99.90
2019-06-26T03:49:48.355Z,99.90
2019-06-26T03:52:18.233Z,99.90
2019-06-26T03:54:47.971Z,99.90
2019-06-26T03:57:17.702Z,99.90
2019-06-26T03:59:48.815Z,99.90
2019-06-26T04:02:18.518Z,99.90
2019-06-26T04:04:48.304Z,99.90
2019-06-26T04:07:18.985Z,99.90
2019-06-26T04:09:48.910Z,99.90
2019-06-26T04:12:18.902Z,99.90
2019-06-26T04:14:49.635Z,99.90
2019-06-26T04:17:19.346Z,99.90
2019-06-26T04:19:49.198Z,99.90
2019-06-26T04:22:18.995Z,99.90
2019-06-26T04:24:48.691Z,99.90
2019-06-26T04:27:20.840Z,99.90
2019-06-26T04:29:50.538Z,99.90
2019-06-26T04:32:20.414Z,99.90
2019-06-26T04:34:50.147Z,99.90
2019-06-26T04:37:20.238Z,99.90
2019-06-26T04:39:49.939Z,99.90
2019-06-26T04:42:19.796Z,99.90
2019-06-26T04:44:49.499Z,99.90
2019-06-26T04:47:19.271Z,99.90
2019-06-26T04:49:48.994Z,99.90
2019-06-26T04:52:18.770Z,99.90
2019-06-26T04:54:48.499Z,99.90
2019-06-26T04:57:18.581Z,99.90
2019-06-26T04:59:48.486Z,99.90
2019-06-26T05:02:19.582Z,99.90
2019-06-26T05:04:49.466Z,99.90
2019-06-26T05:07:20.475Z,99.90
2019-06-26T05:09:50.237Z,99.90
2019-06-26T05:12:20.027Z,99.90
2019-06-26T05:14:50.277Z,99.90
2019-06-26T05:17:19.982Z,99.90
2019-06-26T05:19:49.695Z,99.90
2019-06-26T05:22:19.457Z,99.90
2019-06-26T05:24:50.141Z,99.90
2019-06-26T05:27:19.983Z,99.90
2019-06-26T05:29:49.694Z,99.90
2019-06-26T05:32:19.468Z,99.90
2019-06-26T05:34:49.268Z,99.90
2019-06-26T05:37:20.442Z,99.90
2019-06-26T05:39:50.262Z,99.90
2019-06-26T05:42:21.292Z,99.90
2019-06-26T05:44:51.085Z,99.90
2019-06-26T05:47:22.139Z,99.90
2019-06-26T05:49:52.142Z,99.90
2019-06-26T05:52:21.876Z,99.90
2019-06-26T05:54:51.786Z,99.90
2019-06-26T05:57:22.441Z,99.90
2019-06-26T05:59:52.426Z,99.90
2019-06-26T06:02:22.276Z,99.90
2019-06-26T06:04:52.056Z,99.90
2019-06-26T06:07:21.922Z,99.90
2019-06-26T06:09:51.805Z,99.90
2019-06-26T06:12:23.165Z,99.90
2019-06-26T06:14:54.295Z,99.90
2019-06-26T06:17:24.393Z,99.90
2019-06-26T06:19:54.328Z,99.90
2019-06-26T06:22:27.333Z,99.90
2019-06-26T06:24:55.655Z,99.90
2019-06-26T06:27:25.498Z,99.90
2019-06-26T06:29:55.266Z,99.90
2019-06-26T06:32:25.039Z,99.90
2019-06-26T06:34:55.295Z,99.90
2019-06-26T06:37:25.522Z,99.90
2019-06-26T06:39:56.493Z,99.90
2019-06-26T06:42:26.206Z,99.90
2019-06-26T06:44:55.987Z,99.90
2019-06-26T06:47:25.772Z,99.90
2019-06-26T06:49:55.550Z,99.90
2019-06-26T06:52:25.243Z,99.90
2019-06-26T06:54:57.335Z,99.90
2019-06-26T06:57:27.894Z,99.90
2019-06-26T06:59:57.675Z,99.90
2019-06-26T07:02:27.437Z,99.90
2019-06-26T07:04:57.266Z,99.90
2019-06-26T07:07:27.046Z,99.90
2019-06-26T07:09:56.742Z,99.90
2019-06-26T07:12:27.703Z,99.90
2019-06-26T07:14:57.978Z,99.90
2019-06-26T07:17:27.666Z,99.90
2019-06-26T07:19:57.431Z,99.90
2019-06-26T07:22:27.274Z,99.90
2019-06-26T07:24:58.211Z,99.90
2019-06-26T07:27:28.932Z,99.90
2019-06-26T07:29:58.622Z,99.90
2019-06-26T07:32:28.422Z,99.90
2019-06-26T07:34:58.130Z,99.90
2019-06-26T07:37:27.853Z,99.90
2019-06-26T07:40:01.539Z,99.90
2019-06-26T07:42:29.106Z,99.90
2019-06-26T07:44:58.794Z,99.90
2019-06-26T07:47:42.526Z,99.90
2019-06-26T07:49:59.974Z,99.90
2019-06-26T07:52:29.824Z,99.90
2019-06-26T07:54:59.970Z,99.90
2019-06-26T07:57:29.663Z,99.90
2019-06-26T07:59:59.383Z,99.90
2019-06-26T08:02:29.431Z,99.90
2019-06-26T08:04:59.133Z,99.90
2019-06-26T08:07:28.891Z,99.90
2019-06-26T08:09:58.662Z,99.90
2019-06-26T08:12:28.348Z,99.90
2019-06-26T08:14:58.060Z,99.90
2019-06-26T08:17:29.363Z,99.90
2019-06-26T08:19:59.086Z,99.90
2019-06-26T08:22:28.823Z,99.90
2019-06-26T08:24:58.566Z,99.90
2019-06-26T08:27:28.411Z,99.90
2019-06-26T08:29:59.666Z,99.90
2019-06-26T08:32:29.469Z,99.90
2019-06-26T08:34:59.275Z,99.90
2019-06-26T08:37:29.061Z,99.90
2019-06-26T08:40:09.080Z,99.90
2019-06-26T08:42:41.937Z,99.90
2019-06-26T08:45:12.670Z,99.90
2019-06-26T08:47:42.411Z,99.90
2019-06-26T08:50:14.679Z,99.90
2019-06-26T08:52:44.500Z,99.90
2019-06-26T08:55:14.676Z,99.90
2019-06-26T08:57:44.526Z,99.90
2019-06-26T09:00:16.642Z,99.90
2019-06-26T09:02:48.911Z,99.90
2019-06-26T09:05:19.573Z,99.90
2019-06-26T09:07:50.967Z,99.90
2019-06-26T09:10:20.906Z,99.90
2019-06-26T09:12:50.634Z,99.90
2019-06-26T09:15:20.447Z,99.90
2019-06-26T09:17:50.270Z,99.90
2019-06-26T09:20:27.613Z,99.90
2019-06-26T09:22:57.376Z,99.90
2019-06-26T09:25:27.107Z,99.90
2019-06-26T09:27:56.980Z,99.90
2019-06-26T09:30:26.842Z,99.90
2019-06-26T09:32:56.631Z,99.90
2019-06-26T09:35:26.439Z,99.90
2019-06-26T09:38:00.152Z,99.90
2019-06-26T09:40:32.046Z,99.90
2019-06-26T09:43:02.472Z,99.90
2019-06-26T09:45:32.366Z,99.90
2019-06-26T09:48:02.206Z,99.90
2019-06-26T09:50:31.958Z,99.90
2019-06-26T09:53:05.225Z,99.90
2019-06-26T09:55:33.298Z,99.90
2019-06-26T09:58:03.071Z,99.90
2019-06-26T10:00:33.927Z,99.90
2019-06-26T10:03:03.625Z,99.90
2019-06-26T10:05:33.413Z,99.90
2019-06-26T10:08:03.410Z,99.90
2019-06-26T10:10:33.309Z,99.90
2019-06-26T10:13:03.012Z,99.90
2019-06-26T10:15:32.843Z,99.90
2019-06-26T10:18:02.645Z,99.90
2019-06-26T10:20:33.290Z,99.90
2019-06-26T10:23:02.971Z,99.90
2019-06-26T10:25:32.844Z,99.90
2019-06-26T10:28:02.774Z,99.90
2019-06-26T10:30:32.577Z,99.90
2019-06-26T10:33:02.375Z,99.90
2019-06-26T10:35:32.174Z,99.90
2019-06-26T10:38:01.878Z,99.90
2019-06-26T10:40:32.971Z,99.50
2019-06-26T10:43:02.682Z,99.90
2019-06-26T10:45:35.951Z,99.90
2019-06-26T10:48:03.894Z,99.90
2019-06-26T10:50:33.610Z,99.90
2019-06-26T10:53:03.396Z,99.90
2019-06-26T10:55:33.111Z,99.90
2019-06-26T10:58:03.180Z,99.90
2019-06-26T11:00:33.154Z,99.10
2019-06-26T11:03:02.951Z,99.50
2019-06-26T11:05:32.706Z,98.80
2019-06-26T11:08:02.483Z,99.60
2019-06-26T11:10:33.627Z,99.70
2019-06-26T11:13:03.423Z,99.60
2019-06-26T11:15:33.403Z,99.90
2019-06-26T11:18:03.161Z,99.50
2019-06-26T11:20:33.211Z,99.00
2019-06-26T11:23:02.919Z,97.80
2019-06-26T11:25:33.372Z,98.00
2019-06-26T11:28:05.227Z,99.00
2019-06-26T11:30:35.076Z,99.20
2019-06-26T11:33:04.935Z,98.30
2019-06-26T11:35:34.863Z,98.70
2019-06-26T11:38:04.701Z,99.10
2019-06-26T11:40:34.398Z,98.10
2019-06-26T11:43:04.242Z,97.60
2019-06-26T11:45:34.109Z,96.90
2019-06-26T11:48:05.226Z,96.20
2019-06-26T11:50:34.989Z,95.80
2019-06-26T11:53:04.834Z,96.40
2019-06-26T11:55:34.570Z,95.70
2019-06-26T11:58:04.453Z,96.30
2019-06-26T12:00:34.294Z,97.10
2019-06-26T12:03:04.039Z,97.40
2019-06-26T12:05:33.757Z,97.00
2019-06-26T12:08:03.594Z,97.00
2019-06-26T12:10:33.427Z,97.00
2019-06-26T12:13:04.358Z,96.80
2019-06-26T12:15:34.139Z,96.40
2019-06-26T12:18:03.942Z,96.10
2019-06-26T12:20:33.656Z,97.20
2019-06-26T12:23:03.362Z,96.80
2019-06-26T12:25:33.530Z,96.10
2019-06-26T12:28:04.119Z,95.40
2019-06-26T12:30:33.952Z,95.50
2019-06-26T12:33:04.218Z,95.10
2019-06-26T12:35:35.182Z,94.90
2019-06-26T12:38:05.099Z,95.30
2019-06-26T12:40:34.830Z,93.90
2019-06-26T12:43:04.629Z,93.40
2019-06-26T12:45:34.414Z,91.80
2019-06-26T12:48:04.197Z,93.30
2019-06-26T12:50:36.141Z,92.80
2019-06-26T12:53:05.871Z,92.10
2019-06-26T12:55:37.399Z,91.60
2019-06-26T12:58:14.807Z,90.50
2019-06-26T13:00:38.860Z,91.80
2019-06-26T13:03:08.724Z,91.80
2019-06-26T13:05:40.941Z,91.90
2019-06-26T13:08:10.701Z,93.10
2019-06-26T13:10:49.856Z,92.50
2019-06-26T13:13:12.053Z,92.80
2019-06-26T13:15:41.762Z,93.80
2019-06-26T13:18:11.590Z,94.10
2019-06-26T13:20:52.378Z,94.00
2019-06-26T13:23:14.895Z,93.30
2019-06-26T13:25:44.629Z,92.50
2019-06-26T13:28:14.535Z,93.20
2019-06-26T13:30:44.606Z,93.40
2019-06-26T13:33:14.504Z,92.70
2019-06-26T13:35:44.237Z,93.10
2019-06-26T13:38:13.925Z,92.80
2019-06-26T13:40:43.622Z,93.10
2019-06-26T13:43:13.584Z,93.10
2019-06-26T13:45:43.302Z,93.50
2019-06-26T13:48:13.084Z,93.40
2019-06-26T13:50:42.881Z,93.50
2019-06-26T13:53:14.675Z,92.70
2019-06-26T13:55:44.396Z,92.90
2019-06-26T13:58:14.210Z,92.20
2019-06-26T14:00:43.931Z,93.10
2019-06-26T14:03:13.688Z,92.50
2019-06-26T14:05:43.488Z,92.70
2019-06-26T14:08:13.247Z,92.70
2019-06-26T14:10:44.174Z,92.90
2019-06-26T14:13:14.145Z,93.10
2019-06-26T14:15:44.031Z,91.30
2019-06-26T14:18:13.842Z,91.80
2019-06-26T14:20:43.800Z,91.50
2019-06-26T14:23:13.502Z,91.40
2019-06-26T14:25:44.195Z,91.30
2019-06-26T14:28:13.965Z,90.30
2019-06-26T14:30:43.862Z,91.40
2019-06-26T14:33:13.551Z,90.00
2019-06-26T14:35:43.258Z,89.00
2019-06-26T14:38:12.982Z,88.60
2019-06-26T14:40:44.102Z,87.10
2019-06-26T14:43:13.858Z,85.70
2019-06-26T14:45:44.574Z,86.70
2019-06-26T14:48:14.420Z,82.00
2019-06-26T14:50:45.529Z,80.90
2019-06-26T14:53:15.347Z,78.90
2019-06-26T14:55:45.063Z,80.60
2019-06-26T14:58:14.752Z,79.90
2019-06-26T15:00:44.455Z,78.30
2019-06-26T15:03:14.219Z,79.20
2019-06-26T15:05:43.986Z,76.90
2019-06-26T15:08:13.702Z,77.10
2019-06-26T15:10:43.458Z,77.30
2019-06-26T15:13:13.318Z,79.10
2019-06-26T15:15:43.020Z,77.70
2019-06-26T15:18:12.855Z,77.80
2019-06-26T15:20:42.594Z,76.00
2019-06-26T15:23:12.286Z,73.90
2019-06-26T15:25:42.063Z,73.20
2019-06-26T15:28:11.822Z,75.40
2019-06-26T15:30:41.542Z,75.30
2019-06-26T15:33:11.308Z,77.00
2019-06-26T15:35:41.031Z,74.60
2019-06-26T15:38:10.895Z,71.00
2019-06-26T15:40:40.756Z,69.40
2019-06-26T15:43:10.504Z,70.30
2019-06-26T15:45:40.896Z,73.60
2019-06-26T15:48:10.656Z,71.90
2019-06-26T15:50:40.427Z,70.50
2019-06-26T15:53:10.270Z,67.10
2019-06-26T15:55:39.979Z,64.40
2019-06-26T15:58:09.667Z,64.70
2019-06-26T16:00:39.375Z,67.20
2019-06-26T16:03:09.130Z,70.40
2019-06-26T16:05:38.826Z,71.80
2019-06-26T16:08:08.684Z,72.50
2019-06-26T16:10:38.379Z,76.20
2019-06-26T16:13:10.528Z,78.20
2019-06-26T16:15:40.325Z,80.70
2019-06-26T16:18:38.047Z,81.80
2019-06-26T16:21:08.005Z,82.10
2019-06-26T16:23:37.912Z,81.90
2019-06-26T16:26:07.672Z,84.40
2019-06-26T16:28:37.482Z,86.20
2019-06-26T16:31:07.290Z,87.20
2019-06-26T16:33:37.018Z,88.40
2019-06-26T16:36:08.108Z,87.90
2019-06-26T16:38:39.197Z,87.00
2019-06-26T16:41:09.055Z,88.00
2019-06-26T16:43:40.169Z,86.80
2019-06-26T16:46:09.913Z,83.80
2019-06-26T16:48:39.666Z,85.50
2019-06-26T16:51:09.367Z,86.00
2019-06-26T16:53:39.051Z,86.90
2019-06-26T16:56:08.790Z,86.90
2019-06-26T16:58:38.516Z,87.70
2019-06-26T17:01:08.395Z,85.70
2019-06-26T17:03:38.123Z,87.50
2019-06-26T17:06:07.964Z,87.40
2019-06-26T17:08:37.750Z,87.70
2019-06-26T17:11:07.464Z,90.10
2019-06-26T17:13:37.226Z,90.80
2019-06-26T17:16:06.946Z,91.20
2019-06-26T17:18:36.660Z,90.80
2019-06-26T17:21:06.495Z,90.20
2019-06-26T17:23:36.289Z,90.10
2019-06-26T17:26:06.051Z,89.80
2019-06-26T17:28:35.899Z,90.20
2019-06-26T17:31:05.668Z,90.50
2019-06-26T17:33:35.395Z,90.80
2019-06-26T17:36:05.188Z,91.70
2019-06-26T17:38:35.135Z,92.20
2019-06-26T17:41:04.919Z,92.10
2019-06-26T17:43:34.716Z,92.00
2019-06-26T17:46:04.600Z,91.70
2019-06-26T17:48:34.674Z,91.80
2019-06-26T17:51:04.543Z,90.80
2019-06-26T17:53:34.277Z,91.30
2019-06-26T17:56:04.082Z,91.10
2019-06-26T17:58:34.008Z,91.80
2019-06-26T18:01:03.846Z,92.60
2019-06-26T18:03:33.651Z,92.70
2019-06-26T18:06:03.878Z,93.20
2019-06-26T18:08:33.593Z,93.30
2019-06-26T18:11:03.488Z,92.70
2019-06-26T18:13:33.256Z,93.10
2019-06-26T18:16:03.109Z,93.40
2019-06-26T18:18:32.904Z,93.40
2019-06-26T18:21:02.644Z,93.70
2019-06-26T18:23:38.233Z,93.70
2019-06-26T18:26:13.053Z,93.70
2019-06-26T18:28:38.020Z,93.90
2019-06-26T18:31:07.847Z,93.50
2019-06-26T18:33:37.609Z,93.40
2019-06-26T18:36:07.533Z,93.80
2019-06-26T18:38:37.322Z,94.00
2019-06-26T18:41:07.226Z,94.50
2019-06-26T18:43:37.056Z,94.90
2019-06-26T18:46:06.845Z,95.30
2019-06-26T18:48:36.626Z,95.00
2019-06-26T18:51:06.522Z,95.70
2019-06-26T18:53:36.386Z,95.40
2019-06-26T18:56:06.230Z,95.70
2019-06-26T18:58:36.039Z,95.90
2019-06-26T19:01:06.516Z,96.20
2019-06-26T19:03:36.287Z,96.00
2019-06-26T19:06:06.165Z,96.40
2019-06-26T19:08:36.193Z,95.90
2019-06-26T19:11:05.974Z,96.20
2019-06-26T19:13:35.647Z,96.70
2019-06-26T19:16:05.449Z,96.90
2019-06-26T19:18:35.159Z,97.10
2019-06-26T19:21:05.099Z,96.80
2019-06-26T19:23:41.155Z,96.90
2019-06-26T19:26:10.952Z,96.90
2019-06-26T19:28:40.688Z,97.10
2019-06-26T19:31:10.447Z,97.30
2019-06-26T19:33:45.551Z,97.00
2019-06-26T19:36:13.807Z,97.70
2019-06-26T19:38:43.514Z,97.30
2019-06-26T19:41:13.263Z,97.60
2019-06-26T19:43:43.031Z,97.80
2019-06-26T19:46:12.763Z,98.40
2019-06-26T19:48:42.664Z,98.30
2019-06-26T19:51:12.454Z,98.50
2019-06-26T19:53:42.242Z,98.80
2019-06-26T19:56:12.062Z,98.90
2019-06-26T19:58:42.129Z,98.90
2019-06-26T20:01:11.890Z,98.70
2019-06-26T20:03:42.287Z,99.00
2019-06-26T20:06:12.044Z,99.20
2019-06-26T20:08:54.458Z,99.50
2019-06-26T20:11:14.979Z,99.50
2019-06-26T20:13:45.771Z,99.60
2019-06-26T20:16:15.530Z,99.50
2019-06-26T20:18:45.420Z,99.30
2019-06-26T20:21:15.130Z,99.50
2019-06-26T20:23:45.271Z,99.60
2019-06-26T20:26:16.787Z,99.60
2019-06-26T20:28:47.702Z,99.60
2019-06-26T20:31:17.459Z,99.40
2019-06-26T20:33:47.203Z,99.60
2019-06-26T20:36:16.918Z,99.70
2019-06-26T20:38:46.725Z,99.50
2019-06-26T20:41:16.506Z,99.90
2019-06-26T20:43:46.258Z,99.90
2019-06-26T20:46:16.119Z,99.90
2019-06-26T20:48:45.853Z,99.80
2019-06-26T20:51:15.565Z,99.80
2019-06-26T20:53:45.346Z,99.80
2019-06-26T20:56:15.174Z,99.90
2019-06-26T20:58:44.967Z,99.80
2019-06-26T21:01:14.781Z,99.90
2019-06-26T21:03:44.578Z,99.90
2019-06-26T21:06:14.355Z,99.90
2019-06-26T21:08:46.955Z,99.90
2019-06-26T21:11:19.743Z,99.90
2019-06-26T21:13:49.446Z,99.90
2019-06-26T21:16:19.138Z,99.90
2019-06-26T21:18:48.833Z,99.90
2019-06-26T21:21:18.650Z,99.90
2019-06-26T21:23:48.350Z,99.90
2019-06-26T21:26:18.171Z,99.90
2019-06-26T21:28:48.068Z,99.90
2019-06-26T21:31:17.735Z,99.90
2019-06-26T21:33:47.426Z,99.90
2019-06-26T21:36:17.151Z,99.90
2019-06-26T21:38:47.150Z,99.90
2019-06-26T21:41:16.850Z,99.90
2019-06-26T21:43:46.559Z,99.90
2019-06-26T21:46:16.434Z,99.90
2019-06-26T21:48:46.152Z,99.90
2019-06-26T21:51:15.957Z,99.90
2019-06-26T21:53:45.755Z,99.90
2019-06-26T21:56:33.542Z,99.90
2019-06-26T21:59:21.202Z,99.90
2019-06-26T22:02:09.148Z,99.90
2019-06-26T22:04:50.387Z,99.90
2019-06-26T22:07:30.399Z,99.90
2019-06-26T22:10:04.202Z,99.90
2019-06-26T22:12:35.757Z,99.90
2019-06-26T22:15:08.097Z,99.90
2019-06-26T22:17:39.057Z,99.90
2019-06-26T22:20:12.562Z,99.90
2019-06-26T22:22:40.978Z,99.90
2019-06-26T22:25:10.934Z,99.90
2019-06-26T22:27:40.675Z,99.90
2019-06-26T22:30:10.851Z,99.90
2019-06-26T22:32:40.690Z,99.90
2019-06-26T22:35:22.406Z,99.90
2019-06-26T22:37:52.325Z,99.90
2019-06-26T22:40:22.471Z,99.90
2019-06-26T22:42:52.251Z,99.90
2019-06-26T22:45:22.139Z,99.90
2019-06-26T22:47:51.852Z,99.90
2019-06-26T22:50:21.732Z,99.90
2019-06-26T22:52:51.437Z,99.90
2019-06-26T22:55:21.388Z,99.90
2019-06-26T22:57:51.146Z,99.90
2019-06-26T23:00:21.491Z,99.90
2019-06-26T23:02:51.331Z,99.90
2019-06-26T23:05:21.179Z,99.90
2019-06-26T23:07:51.050Z,99.90
2019-06-26T23:10:21.066Z,99.90
2019-06-26T23:12:50.747Z,99.90
2019-06-26T23:15:21.170Z,99.90
2019-06-26T23:17:50.959Z,99.90
2019-06-26T23:20:20.897Z,99.90
2019-06-26T23:22:50.799Z,99.90
2019-06-26T23:25:20.663Z,99.90
2019-06-26T23:27:50.438Z,99.90
2019-06-26T23:30:20.606Z,99.90
2019-06-26T23:32:50.465Z,99.90
2019-06-26T23:35:20.190Z,99.90
2019-06-26T23:37:50.080Z,99.90
2019-06-26T23:40:19.859Z,99.90
2019-06-26T23:42:49.554Z,99.90
2019-06-26T23:45:19.410Z,99.90
2019-06-26T23:47:49.108Z,99.90
2019-06-26T23:50:18.919Z,99.90
2019-06-26T23:52:48.612Z,99.90
2019-06-26T23:55:18.375Z,99.90
2019-06-26T23:57:58.540Z,99.90
